Time;durP1;ratioP1;P1;durP2;ratioP2;P2;SDS_P1;SDS_P2;PMS_P1;PMS_P2;Temp;Humidity;BMP_temperature;BMP_pressure;BME280_temperature;BME280_humidity;BME280_pressure;Samples;Min_cycle;Max_cycle;Signal;HPM_P1;HPM_P2
2023/07/23 00:02:47;;;;;;;7.40;5.80;;;;;;;18.77;62.99;98980.13;223662;182;138343;-63
2023/07/23 00:07:54;;;;;;;10.90;6.50;;;;;;;18.72;62.94;98978.86;223743;182;139469;-63
2023/07/23 00:12:57;;;;;;;8.60;5.80;;;;;;;18.66;63.48;98972.53;223794;182;145261;-63
2023/07/23 00:18:00;;;;;;;8.50;6.30;;;;;;;18.65;63.47;98978.92;223718;181;140518;-61
2023/07/23 00:23:04;;;;;;;9.90;6.50;;;;;;;18.65;63.86;98975.46;223775;181;136917;-63
2023/07/23 00:28:07;;;;;;;11.30;6.10;;;;;;;18.60;63.93;98977.95;223793;181;145244;-64
2023/07/23 00:33:10;;;;;;;8.00;6.40;;;;;;;18.52;63.90;98973.90;223748;181;138252;-63
2023/07/23 00:38:14;;;;;;;8.40;5.90;;;;;;;18.47;63.94;98976.87;223799;181;136295;-63
2023/07/23 00:43:17;;;;;;;11.50;6.50;;;;;;;18.43;64.14;98977.05;223837;182;145047;-64
2023/07/23 00:48:21;;;;;;;10.50;6.20;;;;;;;18.37;64.34;98977.09;223755;181;139086;-63
2023/07/23 00:53:25;;;;;;;9.80;6.10;;;;;;;18.30;64.44;98973.34;223723;181;137323;-63
2023/07/23 00:58:29;;;;;;;9.90;6.10;;;;;;;18.18;64.70;98972.60;223654;181;146119;-63
2023/07/23 01:03:33;;;;;;;10.30;6.20;;;;;;;18.09;64.95;98972.22;223681;182;139500;-63
2023/07/23 01:08:40;;;;;;;9.00;5.60;;;;;;;18.01;64.88;98974.83;223631;181;137042;-63
2023/07/23 01:13:51;;;;;;;8.90;5.80;;;;;;;17.89;64.91;98969.95;223749;181;145337;-64
2023/07/23 01:18:55;;;;;;;9.70;5.90;;;;;;;17.83;65.13;98968.38;223651;181;138839;-62
2023/07/23 01:26:30;;;;;;;13.30;6.90;;;;;;;17.82;65.08;98971.23;221993;192;676815;-63
2023/07/23 01:31:33;;;;;;;12.60;6.20;;;;;;;17.78;65.16;98971.23;223848;180;136890;-63
2023/07/23 01:36:38;;;;;;;12.80;6.50;;;;;;;17.75;65.15;98965.50;223940;181;143502;-63
2023/07/23 01:41:44;;;;;;;15.90;6.30;;;;;;;17.70;65.38;98964.66;223772;181;138709;-63
2023/07/23 01:46:47;;;;;;;12.40;6.00;;;;;;;17.64;65.27;98967.48;223883;180;137000;-64
2023/07/23 01:51:50;;;;;;;9.30;5.90;;;;;;;17.58;65.36;98973.70;223838;181;143389;-64
2023/07/23 01:56:55;;;;;;;12.90;6.30;;;;;;;17.51;65.76;98969.88;223936;181;138298;-63
2023/07/23 02:08:24;;;;;;;9.50;6.20;;;;;;;17.32;65.79;98981.33;223260;181;144306;-64
2023/07/23 02:13:28;;;;;;;9.50;4.90;;;;;;;17.24;66.01;98985.11;223684;181;138267;-63
2023/07/23 02:18:32;;;;;;;7.10;5.10;;;;;;;17.18;66.19;98983.63;223731;182;137622;-63
2023/07/23 02:23:35;;;;;;;11.90;5.50;;;;;;;17.21;66.18;98982.66;223843;181;145243;-63
2023/07/23 02:28:42;;;;;;;10.40;5.60;;;;;;;17.20;66.02;98980.20;223761;181;140279;-64
2023/07/23 02:33:46;;;;;;;11.00;5.40;;;;;;;17.19;65.90;98986.94;223789;181;137526;-63
2023/07/23 02:38:49;;;;;;;9.20;5.20;;;;;;;17.12;65.94;98989.21;223744;181;146730;-64
2023/07/23 02:43:53;;;;;;;5.60;4.90;;;;;;;17.06;66.05;98986.04;223737;179;138951;-63
2023/07/23 02:48:56;;;;;;;10.40;5.90;;;;;;;16.99;65.99;98994.45;223813;181;137161;-63
2023/07/23 02:54:00;;;;;;;11.00;5.40;;;;;;;16.87;66.11;98998.48;223722;181;145668;-63
2023/07/23 02:59:05;;;;;;;8.40;5.60;;;;;;;16.78;66.45;98994.89;223656;181;138498;-63
2023/07/23 03:04:13;;;;;;;7.20;5.00;;;;;;;16.81;66.82;98990.77;223660;181;137553;-63
2023/07/23 03:09:16;;;;;;;7.70;5.00;;;;;;;16.80;66.82;98990.31;223695;181;145133;-63
2023/07/23 03:14:20;;;;;;;9.30;5.30;;;;;;;16.87;66.83;98988.43;223771;181;138137;-63
2023/07/23 03:19:23;;;;;;;9.50;4.90;;;;;;;16.89;66.76;98983.23;223841;181;138856;-63
2023/07/23 03:24:26;;;;;;;9.20;5.60;;;;;;;16.86;66.83;98987.02;223630;181;146887;-64
2023/07/23 03:29:30;;;;;;;10.00;5.60;;;;;;;16.86;66.89;98984.02;223730;181;138625;-64
2023/07/23 03:34:33;;;;;;;10.20;5.70;;;;;;;16.87;66.93;98984.50;223814;181;136492;-63
2023/07/23 03:39:37;;;;;;;6.80;5.50;;;;;;;16.84;66.94;98981.02;223790;181;145316;-63
2023/07/23 03:44:40;;;;;;;6.70;5.50;;;;;;;16.77;67.30;98977.79;223760;181;138109;-63
2023/07/23 03:49:45;;;;;;;7.80;5.80;;;;;;;16.77;67.58;98974.77;223824;181;136495;-64
2023/07/23 03:54:49;;;;;;;8.80;5.90;;;;;;;16.78;67.55;98971.15;223783;181;145284;-63
2023/07/23 03:59:52;;;;;;;7.90;5.20;;;;;;;16.83;67.67;98971.77;223637;181;138829;-63
2023/07/23 04:04:55;;;;;;;8.00;5.60;;;;;;;16.92;67.48;98975.56;223800;181;136679;-63
2023/07/23 04:09:59;;;;;;;7.10;5.70;;;;;;;17.03;67.41;98978.41;223611;181;145123;-63
2023/07/23 04:15:03;;;;;;;7.90;5.90;;;;;;;17.12;67.42;98979.20;223718;182;138983;-63
2023/07/23 04:20:07;;;;;;;10.70;5.90;;;;;;;17.17;67.17;98985.01;223771;181;136525;-61
2023/07/23 04:25:10;;;;;;;10.70;6.10;;;;;;;17.24;67.58;98987.23;223816;181;145026;-63
2023/07/23 04:30:14;;;;;;;13.90;6.60;;;;;;;17.32;67.72;98984.02;223704;181;138215;-63
2023/07/23 04:35:17;;;;;;;9.30;6.90;;;;;;;17.40;67.71;98980.60;223764;181;137459;-64
2023/07/23 04:40:21;;;;;;;10.60;6.40;;;;;;;17.51;67.70;98986.98;223762;181;145422;-63
2023/07/23 04:45:24;;;;;;;10.10;6.70;;;;;;;17.62;67.46;98988.43;223717;181;138894;-62
2023/07/23 04:50:27;;;;;;;12.80;6.60;;;;;;;17.82;67.14;98977.13;223739;181;137296;-63
2023/07/23 04:55:32;;;;;;;10.90;6.50;;;;;;;17.97;66.97;98971.53;223796;181;144893;-65
2023/07/23 05:00:35;;;;;;;9.40;6.20;;;;;;;18.11;66.66;98966.30;223683;181;138109;-63
2023/07/23 05:05:45;;;;;;;9.50;5.50;;;;;;;18.24;66.35;98967.83;223800;181;136887;-63
2023/07/23 05:10:49;;;;;;;10.40;6.30;;;;;;;18.33;65.94;98963.70;223800;182;145290;-64
2023/07/23 05:15:53;;;;;;;8.90;5.80;;;;;;;18.39;65.76;98962.39;223666;181;138258;-64
2023/07/23 05:20:58;;;;;;;;;;;;;;;18.46;65.81;98961.89;223770;181;136729;-63
2023/07/23 05:26:01;;;;;;;11.80;6.00;;;;;;;18.53;65.97;98964.95;223758;181;146882;-62
2023/07/23 05:31:04;;;;;;;10.00;6.40;;;;;;;18.62;66.13;98965.15;223769;182;138408;-63
2023/07/23 05:36:08;;;;;;;8.60;5.40;;;;;;;18.75;65.88;98968.61;223782;182;137495;-62
2023/07/23 05:41:11;;;;;;;9.10;5.40;;;;;;;18.97;64.71;98969.20;223809;181;144988;-63
2023/07/23 05:46:14;;;;;;;7.50;4.90;;;;;;;19.24;63.59;98965.63;223635;181;139005;-63
2023/07/23 05:51:17;;;;;;;6.30;5.00;;;;;;;19.45;62.05;98969.54;223677;181;136937;-63
2023/07/23 05:56:20;;;;;;;7.30;4.80;;;;;;;19.65;61.55;98962.16;223789;181;145952;-63
2023/07/23 06:01:24;;;;;;;8.50;5.40;;;;;;;19.78;60.64;98962.39;223739;181;138585;-63
2023/07/23 06:06:27;;;;;;;8.40;5.50;;;;;;;19.95;61.86;98960.88;223732;181;137820;-63
2023/07/23 06:11:30;;;;;;;7.70;5.30;;;;;;;20.17;62.57;98955.20;223735;181;145066;-63
2023/07/23 06:16:38;;;;;;;9.30;5.60;;;;;;;20.32;62.15;98959.55;223722;181;139433;-63
2023/07/23 06:21:41;;;;;;;7.80;5.30;;;;;;;20.44;62.09;98959.23;223646;181;137574;-65
2023/07/23 06:26:44;;;;;;;7.80;5.10;;;;;;;20.52;59.70;98956.45;223862;181;145800;-63
2023/07/23 06:31:47;;;;;;;7.40;4.80;;;;;;;20.61;57.84;98958.37;223745;181;138747;-63
2023/07/23 06:36:51;;;;;;;7.90;5.40;;;;;;;20.68;57.17;98957.42;223832;181;137551;-67
2023/07/23 06:41:54;;;;;;;6.90;5.10;;;;;;;20.79;56.97;98950.66;223784;181;145274;-64
2023/07/23 06:46:58;;;;;;;7.40;5.10;;;;;;;20.89;56.42;98948.70;223692;181;140035;-64
2023/07/23 06:52:01;;;;;;;7.80;4.70;;;;;;;20.97;56.02;98951.70;223817;181;137159;-63
2023/07/23 06:57:04;;;;;;;8.70;5.10;;;;;;;21.10;56.75;98952.15;223732;181;145337;-63
2023/07/23 07:02:07;;;;;;;8.80;4.70;;;;;;;21.24;56.27;98945.31;223649;181;142882;-64
2023/07/23 07:07:11;;;;;;;7.00;4.90;;;;;;;21.38;55.31;98938.95;223853;181;137651;-63
2023/07/23 07:12:14;;;;;;;5.90;4.50;;;;;;;21.49;55.46;98931.79;223748;181;144925;-64
2023/07/23 07:17:17;;;;;;;6.80;4.50;;;;;;;21.60;55.19;98925.36;223650;181;138267;-65
2023/07/23 07:22:20;;;;;;;5.70;4.80;;;;;;;21.75;55.42;98925.17;223713;182;136787;-64
2023/07/23 07:27:24;;;;;;;8.20;4.90;;;;;;;21.91;55.38;98924.11;223693;181;145327;-65
2023/07/23 07:32:27;;;;;;;6.70;5.10;;;;;;;22.11;54.90;98925.48;223749;181;139421;-63
2023/07/23 07:37:31;;;;;;;7.90;4.30;;;;;;;22.26;54.26;98921.31;223665;181;137029;-64
2023/07/23 07:42:34;;;;;;;8.30;4.60;;;;;;;22.40;54.03;98917.02;223713;181;145178;-63
2023/07/23 07:47:39;;;;;;;4.60;4.00;;;;;;;22.54;53.52;98915.10;223700;181;138556;-64
2023/07/23 07:52:43;;;;;;;5.90;3.80;;;;;;;22.67;53.09;98911.63;222564;181;136797;-64
2023/07/23 07:57:46;;;;;;;5.80;4.20;;;;;;;22.78;52.74;98909.81;224279;214;145312;-64
2023/07/23 08:02:51;;;;;;;5.10;3.80;;;;;;;22.88;52.45;98903.19;224168;214;138336;-63
2023/07/23 08:07:56;;;;;;;5.70;4.00;;;;;;;23.02;52.11;98901.41;223107;211;131087;-63
2023/07/23 08:13:01;;;;;;;4.80;3.80;;;;;;;23.12;51.98;98901.23;223620;181;145000;-63
2023/07/23 08:18:04;;;;;;;7.00;3.90;;;;;;;23.24;51.48;98898.13;223672;181;138147;-63
2023/07/23 08:23:10;;;;;;;6.00;3.70;;;;;;;23.41;50.97;98897.86;223772;181;136166;-64
2023/07/23 08:28:22;;;;;;;6.60;3.80;;;;;;;23.52;50.27;98887.65;223719;181;145058;-63
2023/07/23 08:33:27;;;;;;;4.80;3.70;;;;;;;23.61;50.20;98878.62;223739;181;138952;-66
2023/07/23 08:38:31;;;;;;;7.50;3.70;;;;;;;23.68;49.97;98877.02;223718;181;136925;-65
2023/07/23 08:43:52;;;;;;;5.10;3.40;;;;;;;23.73;49.86;98873.91;223829;181;145698;-70
2023/07/23 08:48:56;;;;;;;6.10;3.10;;;;;;;23.83;48.93;98868.89;223782;181;139113;-64
2023/07/23 08:54:01;;;;;;;4.40;3.30;;;;;;;23.95;48.20;98863.52;223780;181;137198;-65
2023/07/23 09:02:12;;;;;;;6.80;2.90;;;;;;;24.17;46.87;98855.73;221440;191;677157;-63
2023/07/23 09:07:17;;;;;;;7.40;2.70;;;;;;;24.33;46.42;98853.38;223415;185;138231;-63
2023/07/23 09:12:20;;;;;;;3.60;2.70;;;;;;;24.44;45.43;98846.69;223503;184;143908;-63
2023/07/23 09:17:23;;;;;;;2.70;2.40;;;;;;;24.55;44.01;98847.42;223544;184;138671;-64
2023/07/23 09:22:31;;;;;;;3.50;2.50;;;;;;;24.70;43.72;98844.39;223668;183;136683;-65
2023/07/23 09:27:40;;;;;;;4.20;3.00;;;;;;;24.88;43.85;98841.93;223717;183;143084;-64
2023/07/23 09:32:43;;;;;;;3.80;2.50;;;;;;;25.04;42.85;98846.08;223704;183;138370;-65
2023/07/23 09:37:59;;;;;;;3.50;2.50;;;;;;;25.16;41.19;98835.31;223740;183;137090;-65
2023/07/23 09:43:04;;;;;;;3.90;2.20;;;;;;;25.28;41.43;98831.61;223684;183;143175;-64
2023/07/23 10:02:10;;;;;;;3.00;2.10;;;;;;;25.88;37.45;98825.28;221366;192;676899;-63
2023/07/23 10:07:14;;;;;;;5.20;2.30;;;;;;;25.96;37.08;98829.86;223522;184;136651;-63
2023/07/23 10:12:17;;;;;;;3.20;2.40;;;;;;;26.03;37.44;98827.14;223528;185;143350;-62
2023/07/23 10:17:21;;;;;;;3.60;2.20;;;;;;;26.07;37.92;98824.19;223542;184;138039;-62
2023/07/23 10:22:31;;;;;;;2.90;2.40;;;;;;;26.20;38.21;98818.52;223561;185;136071;-63
2023/07/23 10:27:52;;;;;;;3.00;2.30;;;;;;;26.45;36.69;98817.99;223489;184;143241;-63
2023/07/23 10:33:12;;;;;;;3.20;2.20;;;;;;;26.63;35.30;98822.17;223465;185;139425;-63
2023/07/23 10:38:24;;;;;;;3.00;2.30;;;;;;;26.77;35.59;98804.28;223805;183;136720;-64
2023/07/23 10:43:44;;;;;;;3.20;2.30;;;;;;;26.76;35.13;98801.34;223645;184;143897;-64
2023/07/23 10:48:52;;;;;;;5.20;2.60;;;;;;;26.96;35.25;98794.08;223688;183;138450;-62
2023/07/23 10:54:06;;;;;;;4.40;2.20;;;;;;;27.19;34.27;98792.77;223658;183;140463;-65
2023/07/23 10:59:21;;;;;;;3.80;2.40;;;;;;;27.30;33.50;98795.92;223713;183;146265;-63
2023/07/23 11:04:26;;;;;;;6.90;2.70;;;;;;;27.25;32.58;98787.43;223572;183;139206;-63
2023/07/23 11:09:37;;;;;;;4.20;2.30;;;;;;;27.31;33.09;98782.69;223681;183;136812;-64
2023/07/23 11:14:41;;;;;;;6.00;2.70;;;;;;;27.42;32.48;98780.89;223472;184;146349;-63
2023/07/23 11:19:46;;;;;;;4.60;2.80;;;;;;;27.52;32.02;98770.67;223776;183;138386;-60
2023/07/23 11:24:49;;;;;;;3.80;2.40;;;;;;;27.60;31.29;98771.13;223768;182;137283;-65
2023/07/23 11:29:53;;;;;;;5.20;2.70;;;;;;;27.78;30.83;98759.73;223799;183;146537;-64
2023/07/23 11:34:56;;;;;;;4.80;2.80;;;;;;;27.75;30.66;98753.66;223642;183;138367;-64
2023/07/23 11:40:01;;;;;;;5.40;3.10;;;;;;;27.88;31.18;98751.26;223751;183;136079;-64
2023/07/23 11:45:05;;;;;;;6.00;2.70;;;;;;;28.17;30.74;98747.38;223673;183;145446;-63
2023/07/23 11:50:09;;;;;;;3.40;2.80;;;;;;;28.38;30.57;98740.80;223632;183;139203;-63
2023/07/23 11:55:24;;;;;;;4.90;3.30;;;;;;;28.57;30.19;98740.13;223719;182;136467;-62
2023/07/23 12:02:12;;;;;;;3.10;2.60;;;;;;;28.66;30.26;98725.77;219549;193;666015;-60
2023/07/23 12:07:16;;;;;;;5.80;2.60;;;;;;;28.40;30.04;98732.83;221424;185;136825;-64
2023/07/23 12:12:22;;;;;;;4.70;2.80;;;;;;;28.10;29.93;98725.73;223708;183;143977;-64
2023/07/23 12:17:27;;;;;;;3.90;3.10;;;;;;;27.83;30.59;98729.20;223615;183;138407;-63
2023/07/23 12:22:30;;;;;;;4.90;2.90;;;;;;;27.68;31.20;98720.50;223768;183;136897;-62
2023/07/23 12:27:35;;;;;;;7.70;3.20;;;;;;;27.57;31.27;98722.17;223698;183;143895;-62
2023/07/23 12:32:46;;;;;;;5.80;3.20;;;;;;;27.48;31.28;98719.82;223689;183;138204;-63
2023/07/23 12:37:49;;;;;;;5.00;2.90;;;;;;;27.46;31.58;98712.59;223632;183;139419;-63
2023/07/23 12:42:53;;;;;;;6.10;3.30;;;;;;;27.48;31.86;98713.77;223631;183;143250;-64
2023/07/23 12:47:56;;;;;;;6.00;3.20;;;;;;;27.98;32.31;98698.02;223784;182;139283;-62
2023/07/23 12:53:00;;;;;;;4.50;2.60;;;;;;;28.60;31.85;98694.02;223758;178;136661;-62
2023/07/23 12:58:03;;;;;;;3.90;2.90;;;;;;;29.04;30.80;98689.35;223774;182;145083;-62
2023/07/23 13:03:07;;;;;;;3.40;2.80;;;;;;;29.35;30.10;98684.03;223589;181;140589;-61
2023/07/23 13:08:12;;;;;;;6.80;3.00;;;;;;;29.62;30.01;98676.58;223781;182;137123;-62
2023/07/23 13:13:16;;;;;;;3.40;2.80;;;;;;;29.77;29.60;98674.83;223858;182;145371;-62
2023/07/23 13:18:21;;;;;;;16.30;3.20;;;;;;;30.04;29.18;98669.52;223760;182;138399;-61
2023/07/23 13:23:24;;;;;;;5.30;2.80;;;;;;;30.21;28.79;98660.73;223796;181;136374;-62
2023/07/23 13:28:27;;;;;;;4.80;2.80;;;;;;;29.99;28.65;98660.55;223695;181;145216;-68
2023/07/23 13:33:31;;;;;;;4.10;2.80;;;;;;;29.73;29.31;98653.89;223762;181;138426;-64
2023/07/23 13:38:34;;;;;;;4.90;3.10;;;;;;;29.83;29.46;98646.86;223889;181;137419;-64
2023/07/23 13:43:40;;;;;;;4.10;3.30;;;;;;;29.77;29.12;98644.48;223765;182;145277;-63
2023/07/23 13:48:43;;;;;;;4.10;2.80;;;;;;;29.56;28.67;98646.08;223789;181;138703;-65
2023/07/23 13:53:46;;;;;;;4.30;3.20;;;;;;;29.53;28.73;98642.14;223750;182;136924;-66
2023/07/23 13:58:49;;;;;;;5.00;3.10;;;;;;;29.48;29.11;98636.77;223807;178;145716;-63
2023/07/23 14:03:52;;;;;;;7.00;2.80;;;;;;;29.30;29.20;98633.64;223553;181;139583;-64
2023/07/23 14:08:56;;;;;;;4.70;2.90;;;;;;;29.32;29.42;98637.20;223724;182;136859;-65
2023/07/23 14:13:59;;;;;;;3.60;3.00;;;;;;;29.46;29.28;98625.30;223657;181;145074;-62
2023/07/23 14:19:02;;;;;;;5.50;3.00;;;;;;;29.52;29.33;98622.36;223677;182;138142;-63
2023/07/23 14:24:05;;;;;;;3.90;2.80;;;;;;;29.69;29.61;98620.64;223786;179;137055;-65
2023/07/23 14:29:09;;;;;;;3.70;2.80;;;;;;;29.87;28.79;98622.58;223674;182;145990;-63
2023/07/23 14:34:12;;;;;;;4.60;3.10;;;;;;;29.89;28.46;98614.65;223728;182;138425;-63
2023/07/23 14:39:15;;;;;;;5.10;3.30;;;;;;;29.90;28.74;98611.40;223523;182;137585;-63
2023/07/23 14:44:19;;;;;;;6.60;3.00;;;;;;;29.81;28.38;98611.14;223740;182;147032;-64
2023/07/23 14:49:24;;;;;;;3.70;3.00;;;;;;;29.54;28.48;98603.41;223664;182;138907;-63
2023/07/23 14:54:27;;;;;;;3.80;2.90;;;;;;;29.34;28.30;98601.96;223687;182;136799;-63
2023/07/23 14:59:30;;;;;;;6.40;2.70;;;;;;;29.21;28.50;98597.01;223769;182;145199;-63
2023/07/23 15:04:34;;;;;;;3.20;2.70;;;;;;;29.10;28.72;98590.52;223741;182;138074;-64
2023/07/23 15:09:38;;;;;;;3.90;3.00;;;;;;;29.00;28.97;98587.11;223619;181;137244;-62
2023/07/23 15:14:43;;;;;;;4.30;3.10;;;;;;;28.95;29.53;98580.91;223716;182;145732;-63
2023/07/23 15:19:46;;;;;;;5.80;3.00;;;;;;;28.91;29.30;98578.95;223624;182;140419;-62
2023/07/23 15:24:50;;;;;;;4.10;2.70;;;;;;;28.79;29.38;98573.70;223684;182;139427;-62
2023/07/23 15:29:55;;;;;;;3.20;2.70;;;;;;;28.72;29.82;98571.41;223828;182;146728;-64
2023/07/23 15:34:58;;;;;;;3.10;2.60;;;;;;;28.72;29.68;98562.59;223745;182;138357;-63
2023/07/23 15:40:04;;;;;;;6.60;3.10;;;;;;;28.72;29.82;98561.43;223698;182;137704;-62
2023/07/23 15:45:08;;;;;;;3.10;2.60;;;;;;;28.68;29.86;98558.84;223764;182;145727;-62
2023/07/23 15:50:11;;;;;;;5.60;2.80;;;;;;;28.67;29.89;98556.83;223742;182;138404;-64
2023/07/23 15:55:16;;;;;;;4.20;2.70;;;;;;;28.67;30.10;98555.70;223758;182;137024;-65
2023/07/23 16:02:06;;;;;;;5.40;3.10;;;;;;;28.69;29.60;98544.01;221342;193;667771;-64
2023/07/23 16:07:10;;;;;;;3.80;3.00;;;;;;;28.65;29.68;98550.90;223571;183;136796;-63
2023/07/23 16:12:13;;;;;;;4.40;3.00;;;;;;;28.54;29.50;98544.44;223595;183;143286;-64
2023/07/23 16:17:16;;;;;;;4.80;3.00;;;;;;;28.48;30.01;98541.03;223615;183;138661;-65
2023/07/23 16:22:19;;;;;;;4.90;2.80;;;;;;;28.46;30.30;98535.89;223678;183;136460;-64
2023/07/23 16:27:28;;;;;;;4.90;3.60;;;;;;;28.47;30.23;98534.09;223605;183;143462;-64
2023/07/23 16:32:36;;;;;;;5.80;3.00;;;;;;;28.47;30.44;98529.36;223580;184;138399;-65
2023/07/23 16:37:43;;;;;;;5.30;3.30;;;;;;;28.44;30.42;98527.20;223592;184;136653;-65
2023/07/23 16:42:48;;;;;;;4.10;3.00;;;;;;;28.35;30.43;98522.73;223567;183;144260;-64
2023/07/23 16:47:52;;;;;;;5.40;3.00;;;;;;;28.29;30.38;98517.38;223691;184;139896;-64
2023/07/23 16:52:55;;;;;;;3.90;3.10;;;;;;;28.25;30.52;98513.67;223573;183;139200;-63
2023/07/23 16:57:59;;;;;;;4.10;2.60;;;;;;;28.21;30.77;98516.81;223617;184;146078;-66
2023/07/23 17:03:02;;;;;;;6.50;3.10;;;;;;;28.14;31.03;98517.79;223456;184;140761;-63
2023/07/23 17:08:07;;;;;;;4.10;3.30;;;;;;;28.06;31.49;98519.98;223646;184;136510;-65
2023/07/23 17:13:12;;;;;;;4.30;3.10;;;;;;;28.00;31.59;98519.10;223487;184;146052;-64
2023/07/23 17:18:15;;;;;;;3.80;2.80;;;;;;;27.93;31.90;98516.08;223488;184;139311;-65
2023/07/23 17:23:22;;;;;;;3.80;2.90;;;;;;;27.88;32.30;98507.05;223556;184;137434;-64
2023/07/23 17:28:25;;;;;;;4.30;3.30;;;;;;;27.85;32.28;98511.16;223528;184;145744;-63
2023/07/23 17:33:29;;;;;;;5.70;3.00;;;;;;;27.81;32.55;98503.31;223498;184;138352;-64
2023/07/23 17:38:32;;;;;;;6.90;3.30;;;;;;;27.79;32.88;98495.20;223484;184;137756;-65
2023/07/23 17:43:35;;;;;;;3.90;3.30;;;;;;;27.77;32.96;98496.48;223488;184;146095;-64
2023/07/23 17:48:38;;;;;;;6.60;3.50;;;;;;;27.74;32.88;98493.45;223498;184;140200;-64
2023/07/23 17:53:41;;;;;;;5.10;3.10;;;;;;;27.69;32.91;98492.33;223652;183;136482;-63
2023/07/23 17:58:45;;;;;;;4.80;3.40;;;;;;;27.64;32.94;98491.80;223596;183;146003;-63
2023/07/23 18:03:48;;;;;;;6.10;3.00;;;;;;;27.58;32.84;98488.61;223572;183;140803;-63
2023/07/23 18:08:51;;;;;;;5.80;3.10;;;;;;;27.53;32.63;98485.85;223651;183;139437;-63
2023/07/23 18:13:54;;;;;;;6.70;3.00;;;;;;;27.48;32.97;98486.38;223579;183;145190;-63
2023/07/23 18:18:57;;;;;;;6.60;3.50;;;;;;;27.41;33.61;98487.89;223564;183;139308;-62
2023/07/23 18:24:01;;;;;;;7.10;3.50;;;;;;;27.33;34.42;98485.05;223699;183;136473;-63
2023/07/23 18:29:04;;;;;;;5.10;3.10;;;;;;;27.23;35.01;98485.92;223629;183;145964;-62
2023/07/23 18:34:07;;;;;;;5.50;3.70;;;;;;;27.05;36.17;98491.35;223598;183;139352;-63
2023/07/23 18:39:10;;;;;;;5.80;3.60;;;;;;;26.88;35.87;98489.88;223599;183;136405;-64
2023/07/23 18:44:14;;;;;;;8.10;3.80;;;;;;;26.87;35.35;98484.70;223643;183;145552;-63
2023/07/23 18:49:17;;;;;;;6.00;3.70;;;;;;;26.83;36.30;98492.15;223610;183;138298;-63
2023/07/23 18:54:20;;;;;;;6.80;3.80;;;;;;;26.71;36.91;98490.25;223577;183;136884;-63
2023/07/23 18:59:23;;;;;;;6.80;3.60;;;;;;;26.55;37.31;98493.70;223665;183;145707;-63
2023/07/23 19:04:38;;;;;;;5.90;4.20;;;;;;;26.36;38.29;98495.66;223599;183;138145;-63
2023/07/23 19:09:41;;;;;;;6.40;4.00;;;;;;;26.19;39.51;98492.08;223611;183;137519;-63
2023/07/23 19:14:44;;;;;;;7.70;4.30;;;;;;;25.99;40.43;98495.45;223692;183;145250;-63
2023/07/23 19:19:48;;;;;;;9.30;4.20;;;;;;;25.81;40.35;98492.52;223605;183;138887;-65
2023/07/23 19:24:52;;;;;;;8.20;4.40;;;;;;;25.69;41.09;98496.70;223543;183;140128;-63
2023/07/23 19:29:55;;;;;;;7.80;4.00;;;;;;;25.59;42.08;98497.59;223677;183;146064;-63
2023/07/23 19:34:58;;;;;;;7.60;4.60;;;;;;;25.47;42.52;98497.34;223677;183;139488;-64
2023/07/23 19:40:02;;;;;;;11.40;5.70;;;;;;;25.34;42.88;98498.94;223627;183;136884;-67
2023/07/23 19:45:06;;;;;;;8.70;4.60;;;;;;;25.22;42.76;98495.14;223657;183;146129;-62
2023/07/23 19:50:09;;;;;;;7.40;4.90;;;;;;;25.14;44.07;98494.44;223679;183;138960;-65
2023/07/23 19:55:12;;;;;;;7.40;5.00;;;;;;;25.07;44.92;98494.83;223660;183;137039;-63
2023/07/23 20:00:16;;;;;;;8.20;5.10;;;;;;;25.00;45.34;98492.91;223560;183;145873;-64
2023/07/23 20:05:19;;;;;;;8.60;4.70;;;;;;;24.94;45.26;98488.34;223754;184;138973;-63
2023/07/23 20:10:22;;;;;;;9.80;5.00;;;;;;;24.88;44.72;98489.70;223682;183;136791;-64
2023/07/23 20:15:25;;;;;;;9.30;4.90;;;;;;;24.82;45.37;98487.02;223659;183;145397;-63
2023/07/23 20:20:28;;;;;;;8.00;5.00;;;;;;;24.75;45.95;98485.52;223685;183;138330;-63
2023/07/23 20:25:34;;;;;;;10.40;4.80;;;;;;;24.68;46.15;98485.67;223688;184;136929;-63
2023/07/23 20:30:37;;;;;;;11.90;8.70;;;;;;;24.60;46.71;98485.12;223745;182;145092;-63
2023/07/23 20:35:41;;;;;;;10.50;6.20;;;;;;;24.53;46.48;98485.86;223847;182;139359;-63
2023/07/23 20:40:45;;;;;;;7.20;5.40;;;;;;;24.47;46.71;98485.02;223815;182;137555;-63
2023/07/23 20:45:48;;;;;;;11.50;5.30;;;;;;;24.39;46.93;98482.43;223739;182;145744;-63
2023/07/23 20:50:51;;;;;;;9.60;5.50;;;;;;;24.31;47.14;98482.48;223752;181;139455;-63
2023/07/23 20:55:54;;;;;;;9.80;5.70;;;;;;;24.24;47.36;98482.81;223767;182;137276;-63
2023/07/23 21:00:58;;;;;;;7.20;4.90;;;;;;;24.17;47.15;98481.20;223762;179;145667;-63
2023/07/23 21:06:01;;;;;;;11.20;5.10;;;;;;;24.09;47.09;98482.41;223792;182;138915;-64
2023/07/23 21:11:05;;;;;;;10.40;4.90;;;;;;;24.01;47.95;98486.73;223627;182;137163;-63
2023/07/23 21:16:12;;;;;;;7.40;4.90;;;;;;;23.91;48.35;98490.19;223882;182;145323;-63
2023/07/23 21:21:15;;;;;;;8.00;5.00;;;;;;;23.81;48.71;98492.03;223792;182;140050;-63
2023/07/23 21:26:18;;;;;;;9.60;5.70;;;;;;;23.74;48.47;98492.65;223758;182;137256;-63
2023/07/23 21:31:22;;;;;;;8.30;5.10;;;;;;;23.65;48.74;98495.21;223768;182;145070;-63
2023/07/23 21:36:25;;;;;;;8.10;5.80;;;;;;;23.57;48.83;98492.02;223806;182;138385;-63
2023/07/23 21:41:28;;;;;;;7.30;5.10;;;;;;;23.49;48.75;98490.67;223787;182;137278;-63
2023/07/23 21:46:32;;;;;;;9.70;5.20;;;;;;;23.40;49.33;98493.24;223694;182;146492;-63
2023/07/23 21:51:37;;;;;;;7.60;5.10;;;;;;;23.30;49.50;98493.91;223751;182;139029;-65
2023/07/23 21:56:41;;;;;;;6.80;4.70;;;;;;;23.23;49.91;98491.33;223744;182;136764;-63
2023/07/23 22:01:44;;;;;;;10.10;5.00;;;;;;;23.16;50.03;98492.57;223610;182;145911;-64
2023/07/23 22:06:47;;;;;;;7.50;4.80;;;;;;;23.09;49.69;98489.10;223690;182;138094;-62
2023/07/23 22:11:51;;;;;;;11.70;4.70;;;;;;;23.00;50.12;98488.43;223737;182;136458;-62
2023/07/23 22:16:55;;;;;;;9.10;4.80;;;;;;;22.90;50.25;98485.81;223756;181;145304;-66
2023/07/23 22:21:58;;;;;;;6.40;4.90;;;;;;;22.80;50.36;98486.95;223649;182;138545;-65
2023/07/23 22:27:02;;;;;;;11.60;4.80;;;;;;;22.75;50.67;98484.55;223834;182;137024;-63
2023/07/23 22:32:06;;;;;;;7.60;4.90;;;;;;;22.68;50.62;98479.94;223687;181;145176;-63
2023/07/23 22:37:09;;;;;;;8.40;5.30;;;;;;;22.62;50.85;98476.00;223638;182;138795;-63
2023/07/23 22:42:22;;;;;;;7.70;5.00;;;;;;;22.57;50.77;98478.57;223810;183;138916;-63
2023/07/23 22:47:26;;;;;;;7.60;5.00;;;;;;;22.51;51.28;98472.97;223707;181;145265;-63
2023/07/23 22:52:31;;;;;;;6.50;4.70;;;;;;;22.44;51.94;98471.11;223730;182;138392;-63
2023/07/23 23:02:09;;;;;;;8.30;5.20;;;;;;;22.32;52.63;98464.73;221021;191;666039;-63
2023/07/23 23:07:20;;;;;;;10.40;5.40;;;;;;;22.24;53.33;98466.98;223596;183;137650;-63
2023/07/23 23:12:23;;;;;;;8.70;4.70;;;;;;;22.20;53.96;98464.09;223620;184;145081;-63
2023/07/23 23:17:26;;;;;;;7.50;4.90;;;;;;;22.16;54.56;98458.59;223587;184;138428;-63
2023/07/23 23:22:29;;;;;;;11.10;5.40;;;;;;;22.12;55.34;98459.55;223633;184;136071;-63
2023/07/23 23:27:32;;;;;;;7.90;5.00;;;;;;;22.08;55.74;98453.35;223585;183;144008;-63
2023/07/23 23:32:36;;;;;;;6.80;4.70;;;;;;;22.03;56.38;98454.43;223564;184;138424;-63
2023/07/23 23:37:39;;;;;;;8.30;5.00;;;;;;;21.99;56.66;98451.93;223524;184;136560;-64
2023/07/23 23:42:46;;;;;;;7.30;4.50;;;;;;;21.93;56.84;98448.02;223676;184;143404;-63
2023/07/23 23:47:49;;;;;;;7.70;5.00;;;;;;;21.89;56.92;98437.86;223683;183;139104;-63
2023/07/23 23:52:52;;;;;;;8.00;4.70;;;;;;;21.86;57.45;98442.67;223590;184;137580;-63
2023/07/23 23:57:55;;;;;;;6.70;5.10;;;;;;;21.86;56.98;98440.88;223601;183;145286;-63
